createdAt,value
2018-12-29T00:00:01.659Z,0
2018-12-29T00:01:03.024Z,0
2018-12-29T00:02:04.389Z,0
2018-12-29T00:03:05.750Z,0
2018-12-29T00:04:07.117Z,0
2018-12-29T00:05:08.476Z,0
2018-12-29T00:06:09.840Z,0
2018-12-29T00:07:11.205Z,0
2018-12-29T00:08:12.570Z,0
2018-12-29T00:09:13.934Z,0
2018-12-29T00:10:15.296Z,0
2018-12-29T00:11:16.660Z,0
2018-12-29T00:12:18.021Z,0
2018-12-29T00:13:19.548Z,0
2018-12-29T00:14:20.845Z,0
2018-12-29T00:15:22.208Z,0
2018-12-29T00:16:23.580Z,0
2018-12-29T00:17:24.938Z,0
2018-12-29T00:18:26.300Z,0
2018-12-29T00:19:27.664Z,0
2018-12-29T00:20:29.027Z,0
2018-12-29T00:21:30.397Z,0
2018-12-29T00:22:31.760Z,0
2018-12-29T00:23:33.120Z,0
2018-12-29T00:24:34.483Z,0
2018-12-29T00:25:35.848Z,0
2018-12-29T00:26:37.212Z,0
2018-12-29T00:27:38.578Z,0
2018-12-29T00:28:39.945Z,0
2018-12-29T00:29:41.307Z,0
2018-12-29T00:30:42.672Z,0
2018-12-29T00:31:44.034Z,0
2018-12-29T00:32:45.405Z,0
2018-12-29T00:33:46.763Z,0
2018-12-29T00:34:48.123Z,0
2018-12-29T00:35:49.489Z,0
2018-12-29T00:36:50.855Z,0
2018-12-29T00:37:52.216Z,0
2018-12-29T00:38:53.584Z,0
2018-12-29T00:39:54.946Z,0
2018-12-29T00:40:56.310Z,0
2018-12-29T00:41:57.674Z,0
2018-12-29T00:42:59.038Z,0
2018-12-29T00:44:00.403Z,0
2018-12-29T00:45:02.701Z,0
2018-12-29T00:46:03.094Z,0
2018-12-29T00:47:04.457Z,0
2018-12-29T00:48:05.819Z,0
2018-12-29T00:49:07.185Z,0
2018-12-29T00:50:08.547Z,0
2018-12-29T00:51:09.911Z,0
2018-12-29T00:52:11.303Z,0
2018-12-29T00:53:12.664Z,0
2018-12-29T00:54:14.025Z,0
2018-12-29T00:55:15.388Z,0
2018-12-29T00:56:16.755Z,0
2018-12-29T00:57:18.118Z,0
2018-12-29T00:58:19.482Z,0
2018-12-29T00:59:20.845Z,0
2018-12-29T01:00:22.205Z,0
2018-12-29T01:01:23.569Z,0
2018-12-29T01:02:24.930Z,0
2018-12-29T01:03:26.294Z,0
2018-12-29T01:04:27.658Z,0
2018-12-29T01:05:29.022Z,0
2018-12-29T01:06:30.387Z,0
2018-12-29T01:07:31.748Z,0
2018-12-29T01:08:33.113Z,0
2018-12-29T01:09:34.488Z,0
2018-12-29T01:10:35.854Z,0
2018-12-29T01:11:37.216Z,0
2018-12-29T01:12:38.581Z,0
2018-12-29T01:13:39.943Z,0
2018-12-29T01:14:41.303Z,0
2018-12-29T01:15:42.671Z,0
2018-12-29T01:16:44.033Z,0
2018-12-29T01:17:45.398Z,0
2018-12-29T01:18:46.760Z,0
2018-12-29T01:19:48.124Z,0
2018-12-29T01:20:49.563Z,0
2018-12-29T01:21:50.920Z,0
2018-12-29T01:22:52.284Z,0
2018-12-29T01:23:53.645Z,0
2018-12-29T01:24:55.010Z,0
2018-12-29T01:25:56.374Z,0
2018-12-29T01:26:57.745Z,0
2018-12-29T01:27:59.102Z,0
2018-12-29T01:29:00.467Z,0
2018-12-29T01:30:01.824Z,0
2018-12-29T01:31:03.189Z,0
2018-12-29T01:32:04.555Z,0
2018-12-29T01:33:05.916Z,0
2018-12-29T01:34:07.279Z,0
2018-12-29T01:35:08.643Z,0
2018-12-29T01:36:10.009Z,0
2018-12-29T01:37:11.368Z,0
2018-12-29T01:38:12.732Z,0
2018-12-29T01:39:14.096Z,0
2018-12-29T01:40:15.461Z,0
2018-12-29T01:41:16.820Z,0
2018-12-29T01:42:18.186Z,0
2018-12-29T01:43:19.551Z,0
2018-12-29T01:44:20.914Z,0
2018-12-29T01:45:22.276Z,0
2018-12-29T01:46:23.640Z,0
2018-12-29T01:47:25.001Z,0
2018-12-29T01:48:26.369Z,0
2018-12-29T01:49:27.732Z,0
2018-12-29T01:50:29.093Z,0
2018-12-29T01:51:30.453Z,0
2018-12-29T01:52:31.817Z,0
2018-12-29T01:53:33.180Z,0
2018-12-29T01:54:34.543Z,0
2018-12-29T01:55:35.910Z,0
2018-12-29T01:56:37.272Z,0
2018-12-29T01:57:38.637Z,0
2018-12-29T01:58:39.998Z,0
2018-12-29T01:59:41.361Z,0
2018-12-29T02:00:42.729Z,0
2018-12-29T02:01:44.092Z,0
2018-12-29T02:02:45.455Z,0
2018-12-29T02:03:46.820Z,0
2018-12-29T02:04:48.180Z,0
2018-12-29T02:05:49.571Z,0
2018-12-29T02:06:50.937Z,0
2018-12-29T02:07:52.299Z,0
2018-12-29T02:08:53.664Z,0
2018-12-29T02:09:55.027Z,0
2018-12-29T02:10:56.392Z,0
2018-12-29T02:11:57.753Z,0
2018-12-29T02:12:59.169Z,0
2018-12-29T02:14:00.477Z,0
2018-12-29T02:15:01.840Z,0
2018-12-29T02:16:03.207Z,0
2018-12-29T02:17:04.573Z,0
2018-12-29T02:18:05.935Z,0
2018-12-29T02:19:07.299Z,0
2018-12-29T02:20:08.664Z,0
2018-12-29T02:21:10.025Z,0
2018-12-29T02:22:11.387Z,0
2018-12-29T02:23:12.751Z,0
2018-12-29T02:24:14.113Z,0
2018-12-29T02:25:15.479Z,0
2018-12-29T02:26:16.842Z,0
2018-12-29T02:27:18.205Z,0
2018-12-29T02:28:19.566Z,0
2018-12-29T02:29:20.929Z,0
2018-12-29T02:30:22.296Z,0
2018-12-29T02:31:23.662Z,0
2018-12-29T02:32:25.026Z,0
2018-12-29T02:33:26.388Z,0
2018-12-29T02:34:27.748Z,0
2018-12-29T02:35:29.111Z,0
2018-12-29T02:36:30.473Z,0
2018-12-29T02:37:31.840Z,0
2018-12-29T02:38:33.206Z,0
2018-12-29T02:39:34.586Z,0
2018-12-29T02:40:35.952Z,0
2018-12-29T02:41:37.314Z,0
2018-12-29T02:42:38.678Z,0
2018-12-29T02:43:40.046Z,0
2018-12-29T02:44:41.408Z,0
2018-12-29T02:45:42.773Z,0
2018-12-29T02:46:44.137Z,0
2018-12-29T02:47:45.499Z,0
2018-12-29T02:48:46.862Z,0
2018-12-29T02:49:48.226Z,0
2018-12-29T02:50:49.588Z,0
2018-12-29T02:51:50.953Z,0
2018-12-29T02:52:52.317Z,0
2018-12-29T02:53:53.692Z,0
2018-12-29T02:54:55.043Z,0
2018-12-29T02:55:56.402Z,0
2018-12-29T02:56:57.770Z,0
2018-12-29T02:57:59.130Z,0
2018-12-29T02:59:00.509Z,0
2018-12-29T03:00:01.857Z,0
2018-12-29T03:01:03.220Z,0
2018-12-29T03:02:04.581Z,0
2018-12-29T03:03:05.947Z,0
2018-12-29T03:04:07.308Z,0
2018-12-29T03:05:08.672Z,0
2018-12-29T03:06:10.034Z,0
2018-12-29T03:07:11.399Z,0
2018-12-29T03:08:12.762Z,0
2018-12-29T03:09:14.123Z,0
2018-12-29T03:10:15.494Z,0
2018-12-29T03:11:16.854Z,0
2018-12-29T03:12:18.214Z,0
2018-12-29T03:13:19.576Z,0
2018-12-29T03:14:20.944Z,0
2018-12-29T03:15:22.311Z,0
2018-12-29T03:16:23.675Z,0
2018-12-29T03:17:25.029Z,0
2018-12-29T03:18:26.397Z,0
2018-12-29T03:19:27.762Z,0
2018-12-29T03:20:29.126Z,0
2018-12-29T03:21:30.495Z,0
2018-12-29T03:22:31.856Z,0
2018-12-29T03:23:33.216Z,0
2018-12-29T03:24:34.577Z,0
2018-12-29T03:25:35.941Z,0
2018-12-29T03:26:37.303Z,0
2018-12-29T03:27:38.668Z,0
2018-12-29T03:28:40.033Z,0
2018-12-29T03:29:41.398Z,0
2018-12-29T03:30:42.760Z,0
2018-12-29T03:31:44.132Z,0
2018-12-29T03:32:45.488Z,0
2018-12-29T03:33:46.854Z,0
2018-12-29T03:34:48.216Z,0
2018-12-29T03:35:49.579Z,0
2018-12-29T03:36:50.947Z,0
2018-12-29T03:37:52.305Z,0
2018-12-29T03:38:53.676Z,0
2018-12-29T03:39:55.041Z,0
2018-12-29T03:40:56.399Z,0
2018-12-29T03:41:57.763Z,0
2018-12-29T03:42:59.127Z,0
2018-12-29T03:44:00.494Z,0
2018-12-29T03:45:01.855Z,0
2018-12-29T03:46:03.214Z,0
2018-12-29T03:47:04.582Z,0
2018-12-29T03:48:05.941Z,0
2018-12-29T03:49:07.304Z,0
2018-12-29T03:50:08.671Z,0
2018-12-29T03:51:10.037Z,0
2018-12-29T03:52:11.399Z,0
2018-12-29T03:53:12.758Z,0
2018-12-29T03:54:14.129Z,0
2018-12-29T03:55:15.485Z,0
2018-12-29T03:56:16.850Z,0
2018-12-29T03:57:18.213Z,0
2018-12-29T03:58:19.577Z,0
2018-12-29T03:59:20.940Z,0
2018-12-29T04:00:22.304Z,0
2018-12-29T04:01:23.671Z,0
2018-12-29T04:02:25.032Z,0
2018-12-29T04:03:26.394Z,0
2018-12-29T04:04:27.757Z,0
2018-12-29T04:05:29.120Z,0
2018-12-29T04:06:30.482Z,0
2018-12-29T04:07:31.847Z,0
2018-12-29T04:08:33.211Z,0
2018-12-29T04:09:34.573Z,0
2018-12-29T04:10:35.937Z,0
2018-12-29T04:11:37.301Z,0
2018-12-29T04:12:38.671Z,0
2018-12-29T04:13:40.032Z,0
2018-12-29T04:14:41.392Z,0
2018-12-29T04:15:42.759Z,0
2018-12-29T04:16:44.119Z,0
2018-12-29T04:17:45.482Z,0
2018-12-29T04:18:46.850Z,0
2018-12-29T04:19:48.213Z,0
2018-12-29T04:20:49.576Z,0
2018-12-29T04:21:50.938Z,0
2018-12-29T04:22:52.302Z,0
2018-12-29T04:23:53.668Z,0
2018-12-29T04:24:55.035Z,0
2018-12-29T04:25:56.399Z,0
2018-12-29T04:26:57.759Z,0
2018-12-29T04:27:59.221Z,0
2018-12-29T04:29:00.612Z,0
2018-12-29T04:30:01.976Z,0
2018-12-29T04:31:03.341Z,0
2018-12-29T04:32:04.702Z,0
2018-12-29T04:33:06.066Z,0
2018-12-29T04:34:07.430Z,0
2018-12-29T04:35:08.793Z,0
2018-12-29T04:36:10.157Z,0
2018-12-29T04:37:11.521Z,0
2018-12-29T04:38:12.882Z,0
2018-12-29T04:39:14.244Z,0
2018-12-29T04:40:15.613Z,0
2018-12-29T04:41:16.981Z,0
2018-12-29T04:42:18.350Z,0
2018-12-29T04:43:19.710Z,0
2018-12-29T04:44:21.067Z,0
2018-12-29T04:45:22.432Z,0
2018-12-29T04:46:23.796Z,0
2018-12-29T04:47:25.161Z,0
2018-12-29T04:48:26.525Z,0
2018-12-29T04:49:27.883Z,0
2018-12-29T04:50:29.246Z,0
2018-12-29T04:51:30.610Z,0
2018-12-29T04:52:31.974Z,0
2018-12-29T04:53:33.340Z,0
2018-12-29T04:54:34.708Z,0
2018-12-29T04:55:36.069Z,0
2018-12-29T04:56:37.430Z,0
2018-12-29T04:57:38.794Z,0
2018-12-29T04:58:40.159Z,0
2018-12-29T04:59:41.523Z,0
2018-12-29T05:00:42.888Z,0
2018-12-29T05:01:44.249Z,0
2018-12-29T05:02:45.619Z,0
2018-12-29T05:03:46.979Z,0
2018-12-29T05:04:48.344Z,0
2018-12-29T05:05:49.706Z,0
2018-12-29T05:06:51.072Z,0
2018-12-29T05:07:52.435Z,0
2018-12-29T05:08:53.804Z,0
2018-12-29T05:09:55.168Z,0
2018-12-29T05:10:56.530Z,0
2018-12-29T05:11:57.891Z,0
2018-12-29T05:12:59.258Z,0
2018-12-29T05:14:00.617Z,0
2018-12-29T05:15:01.984Z,0
2018-12-29T05:16:03.348Z,0
2018-12-29T05:17:04.711Z,0
2018-12-29T05:18:06.070Z,0
2018-12-29T05:19:07.433Z,0
2018-12-29T05:20:08.793Z,0
2018-12-29T05:21:10.161Z,0
2018-12-29T05:22:11.524Z,0
2018-12-29T05:23:12.887Z,0
2018-12-29T05:24:14.250Z,0
2018-12-29T05:25:15.617Z,0
2018-12-29T05:26:16.976Z,0
2018-12-29T05:27:18.340Z,0
2018-12-29T05:28:19.704Z,0
2018-12-29T05:29:21.067Z,0
2018-12-29T05:30:22.432Z,0
2018-12-29T05:31:23.799Z,0
2018-12-29T05:32:25.166Z,0
2018-12-29T05:33:26.527Z,0
2018-12-29T05:34:27.886Z,0
2018-12-29T05:35:29.256Z,0
2018-12-29T05:36:30.613Z,0
2018-12-29T05:37:31.977Z,0
2018-12-29T05:38:33.341Z,0
2018-12-29T05:39:34.717Z,0
2018-12-29T05:40:36.078Z,0
2018-12-29T05:41:37.441Z,0
2018-12-29T05:42:38.803Z,0
2018-12-29T05:43:40.166Z,0
2018-12-29T05:44:41.532Z,0
2018-12-29T05:45:42.897Z,0
2018-12-29T05:46:44.259Z,0
2018-12-29T05:47:45.623Z,0
2018-12-29T05:48:46.986Z,0
2018-12-29T05:49:48.349Z,0
2018-12-29T05:50:49.712Z,0
2018-12-29T05:51:51.077Z,0
2018-12-29T05:52:52.445Z,0
2018-12-29T05:53:53.810Z,0
2018-12-29T05:54:55.166Z,0
2018-12-29T05:55:56.532Z,0
2018-12-29T05:56:57.895Z,0
2018-12-29T05:57:59.262Z,0
2018-12-29T05:59:00.627Z,0
2018-12-29T06:00:01.995Z,0
2018-12-29T06:01:03.352Z,0
2018-12-29T06:02:04.718Z,0
2018-12-29T06:03:06.076Z,0
2018-12-29T06:04:07.442Z,0
2018-12-29T06:05:08.805Z,0
2018-12-29T06:06:10.169Z,0
2018-12-29T06:07:11.531Z,0
2018-12-29T06:08:12.891Z,0
2018-12-29T06:09:14.254Z,0
2018-12-29T06:10:15.620Z,0
2018-12-29T06:11:16.983Z,0
2018-12-29T06:12:18.346Z,0
2018-12-29T06:13:19.710Z,0
2018-12-29T06:14:21.074Z,0
2018-12-29T06:15:22.437Z,0
2018-12-29T06:16:27.658Z,0
2018-12-29T06:17:25.129Z,0
2018-12-29T06:18:26.491Z,0
2018-12-29T06:19:27.857Z,0
2018-12-29T06:20:29.222Z,0
2018-12-29T06:21:30.594Z,0
2018-12-29T06:22:31.948Z,0
2018-12-29T06:23:33.306Z,0
2018-12-29T06:24:34.670Z,0
2018-12-29T06:25:36.033Z,0
2018-12-29T06:26:37.402Z,0
2018-12-29T06:27:38.761Z,0
2018-12-29T06:28:40.131Z,0
2018-12-29T06:29:41.489Z,0
2018-12-29T06:30:42.855Z,0
2018-12-29T06:31:44.242Z,0
2018-12-29T06:32:45.579Z,0
2018-12-29T06:33:46.942Z,0
2018-12-29T06:34:48.307Z,0
2018-12-29T06:35:49.669Z,0
2018-12-29T06:36:51.032Z,0
2018-12-29T06:37:52.396Z,0
2018-12-29T06:38:53.760Z,0
2018-12-29T06:39:55.121Z,0
2018-12-29T06:40:56.484Z,0
2018-12-29T06:41:57.848Z,0
2018-12-29T06:42:59.213Z,0
2018-12-29T06:44:00.577Z,0
2018-12-29T06:45:01.942Z,0
2018-12-29T06:46:03.301Z,0
2018-12-29T06:47:04.666Z,0
2018-12-29T06:48:06.027Z,0
2018-12-29T06:49:07.394Z,0
2018-12-29T06:50:08.759Z,0
2018-12-29T06:51:10.123Z,0
2018-12-29T06:52:11.483Z,0
2018-12-29T06:53:12.849Z,0
2018-12-29T06:54:14.210Z,0
2018-12-29T06:55:15.575Z,0
2018-12-29T06:56:16.941Z,0
2018-12-29T06:57:18.305Z,0
2018-12-29T06:58:19.663Z,0
2018-12-29T06:59:21.028Z,0
2018-12-29T07:00:22.391Z,0
2018-12-29T07:01:23.755Z,0
2018-12-29T07:02:25.121Z,0
2018-12-29T07:03:26.483Z,0
2018-12-29T07:04:27.847Z,0
2018-12-29T07:05:29.208Z,0
2018-12-29T07:06:30.583Z,0
2018-12-29T07:07:31.941Z,0
2018-12-29T07:08:33.303Z,0
2018-12-29T07:09:34.665Z,0
2018-12-29T07:10:36.026Z,0
2018-12-29T07:11:38.618Z,0
2018-12-29T07:12:38.720Z,0
2018-12-29T07:13:40.083Z,0
2018-12-29T07:14:41.444Z,0
2018-12-29T07:15:42.809Z,0
2018-12-29T07:16:44.172Z,0
2018-12-29T07:17:45.537Z,0
2018-12-29T07:18:46.904Z,0
2018-12-29T07:19:48.269Z,0
2018-12-29T07:20:49.636Z,0
2018-12-29T07:21:50.998Z,0
2018-12-29T07:22:52.366Z,0
2018-12-29T07:23:53.733Z,0
2018-12-29T07:24:55.098Z,0
2018-12-29T07:25:56.466Z,0
2018-12-29T07:26:57.829Z,0
2018-12-29T07:27:59.192Z,0
2018-12-29T07:29:00.568Z,0
2018-12-29T07:30:01.932Z,0
2018-12-29T07:31:03.302Z,0
2018-12-29T07:32:04.667Z,0
2018-12-29T07:33:06.036Z,0
2018-12-29T07:34:07.399Z,0
2018-12-29T07:35:08.763Z,0
2018-12-29T07:36:10.128Z,5
2018-12-29T07:37:11.492Z,5
2018-12-29T07:38:12.858Z,5
2018-12-29T07:39:14.230Z,5
2018-12-29T07:40:15.597Z,5
2018-12-29T07:41:16.960Z,5
2018-12-29T07:42:18.324Z,5
2018-12-29T07:43:19.689Z,5
2018-12-29T07:44:21.053Z,5
2018-12-29T07:45:22.422Z,5
2018-12-29T07:46:23.809Z,10
2018-12-29T07:47:25.159Z,10
2018-12-29T07:48:26.524Z,10
2018-12-29T07:49:27.893Z,10
2018-12-29T07:50:29.275Z,10
2018-12-29T07:51:30.644Z,10
2018-12-29T07:52:32.016Z,10
2018-12-29T07:53:33.386Z,10
2018-12-29T07:54:34.754Z,10
2018-12-29T07:55:36.119Z,10
2018-12-29T07:56:37.483Z,10
2018-12-29T07:57:38.852Z,15
2018-12-29T07:58:40.218Z,15
2018-12-29T07:59:41.584Z,15
2018-12-29T08:00:42.956Z,15
2018-12-29T08:01:44.323Z,15
2018-12-29T08:02:45.689Z,15
2018-12-29T08:03:47.057Z,20
2018-12-29T08:04:48.421Z,20
2018-12-29T08:05:49.787Z,20
2018-12-29T08:06:51.155Z,20
2018-12-29T08:07:52.527Z,20
2018-12-29T08:08:53.895Z,25
2018-12-29T08:09:55.260Z,35
2018-12-29T08:10:56.627Z,25
2018-12-29T08:11:57.993Z,25
2018-12-29T08:12:59.360Z,30
2018-12-29T08:14:00.793Z,25
2018-12-29T08:15:02.102Z,30
2018-12-29T08:16:03.468Z,30
2018-12-29T08:17:04.834Z,30
2018-12-29T08:18:06.200Z,25
2018-12-29T08:19:07.571Z,25
2018-12-29T08:20:08.935Z,30
2018-12-29T08:21:10.318Z,30
2018-12-29T08:22:11.681Z,30
2018-12-29T08:23:13.052Z,30
2018-12-29T08:24:14.417Z,30
2018-12-29T08:25:15.790Z,35
2018-12-29T08:26:17.152Z,35
2018-12-29T08:27:18.522Z,35
2018-12-29T08:28:19.890Z,35
2018-12-29T08:29:21.263Z,30
2018-12-29T08:30:22.626Z,35
2018-12-29T08:31:23.988Z,25
2018-12-29T08:32:25.356Z,25
2018-12-29T08:33:26.722Z,25
2018-12-29T08:34:28.089Z,25
2018-12-29T08:35:29.459Z,20
2018-12-29T08:36:30.827Z,20
2018-12-29T08:37:32.198Z,20
2018-12-29T08:38:33.564Z,15
2018-12-29T08:39:34.930Z,15
2018-12-29T08:40:36.295Z,20
2018-12-29T08:41:37.664Z,20
2018-12-29T08:42:39.032Z,20
2018-12-29T08:43:40.398Z,20
2018-12-29T08:44:41.769Z,20
2018-12-29T08:45:43.136Z,20
2018-12-29T08:46:44.503Z,25
2018-12-29T08:47:45.870Z,30
2018-12-29T08:48:47.238Z,35
2018-12-29T08:49:48.606Z,35
2018-12-29T08:50:49.978Z,35
2018-12-29T08:51:51.355Z,45
2018-12-29T08:52:52.755Z,45
2018-12-29T08:53:54.125Z,45
2018-12-29T08:54:55.491Z,45
2018-12-29T08:55:56.861Z,45
2018-12-29T08:56:58.230Z,40
2018-12-29T08:57:59.596Z,35
2018-12-29T08:59:00.969Z,35
2018-12-29T09:00:02.369Z,40
2018-12-29T09:01:03.734Z,35
2018-12-29T09:02:05.100Z,35
2018-12-29T09:03:06.470Z,40
2018-12-29T09:04:07.835Z,35
2018-12-29T09:05:09.207Z,35
2018-12-29T09:06:10.572Z,35
2018-12-29T09:07:11.939Z,45
2018-12-29T09:08:13.308Z,45
2018-12-29T09:09:14.706Z,45
2018-12-29T09:10:16.071Z,45
2018-12-29T09:11:17.445Z,45
2018-12-29T09:12:18.833Z,45
2018-12-29T09:13:20.202Z,45
2018-12-29T09:14:21.569Z,50
2018-12-29T09:15:22.937Z,45
2018-12-29T09:16:24.310Z,45
2018-12-29T09:17:25.677Z,50
2018-12-29T09:18:27.042Z,50
2018-12-29T09:19:28.418Z,50
2018-12-29T09:20:29.783Z,50
2018-12-29T09:21:31.150Z,45
2018-12-29T09:22:32.520Z,50
2018-12-29T09:23:33.889Z,45
2018-12-29T09:24:35.255Z,45
2018-12-29T09:25:36.624Z,55
2018-12-29T09:26:38.007Z,55
2018-12-29T09:27:39.378Z,60
2018-12-29T09:28:40.746Z,60
2018-12-29T09:29:42.113Z,55
2018-12-29T09:30:43.480Z,60
2018-12-29T09:31:44.861Z,55
2018-12-29T09:32:46.228Z,55
2018-12-29T09:33:47.597Z,70
2018-12-29T09:34:48.967Z,75
2018-12-29T09:35:50.334Z,70
2018-12-29T09:36:51.715Z,60
2018-12-29T09:37:53.083Z,70
2018-12-29T09:38:54.453Z,80
2018-12-29T09:39:55.821Z,85
2018-12-29T09:40:57.204Z,85
2018-12-29T09:41:58.569Z,75
2018-12-29T09:42:59.935Z,85
2018-12-29T09:44:01.302Z,85
2018-12-29T09:45:02.672Z,90
2018-12-29T09:46:04.041Z,95
2018-12-29T09:47:05.411Z,100
2018-12-29T09:48:06.780Z,100
2018-12-29T09:49:08.151Z,90
2018-12-29T09:50:09.536Z,105
2018-12-29T09:51:10.906Z,105
2018-12-29T09:52:12.295Z,110
2018-12-29T09:53:13.664Z,110
2018-12-29T09:54:15.039Z,110
2018-12-29T09:55:16.419Z,110
2018-12-29T09:56:17.791Z,100
2018-12-29T09:57:19.160Z,105
2018-12-29T09:58:20.528Z,105
2018-12-29T09:59:21.908Z,95
2018-12-29T10:00:23.274Z,95
2018-12-29T10:01:24.643Z,95
2018-12-29T10:02:26.019Z,100
2018-12-29T10:03:27.390Z,110
2018-12-29T10:04:28.757Z,115
2018-12-29T10:05:30.125Z,125
2018-12-29T10:06:31.498Z,120
2018-12-29T10:07:32.867Z,120
2018-12-29T10:08:34.240Z,110
2018-12-29T10:09:35.611Z,120
2018-12-29T10:10:36.983Z,120
2018-12-29T10:11:38.350Z,135
2018-12-29T10:12:39.719Z,155
2018-12-29T10:13:41.482Z,160
2018-12-29T10:14:42.847Z,155
2018-12-29T10:15:44.220Z,165
2018-12-29T10:16:45.590Z,165
2018-12-29T10:17:46.963Z,165
2018-12-29T10:18:48.332Z,165
2018-12-29T10:19:49.703Z,165
2018-12-29T10:20:51.073Z,145
2018-12-29T10:21:52.445Z,145
2018-12-29T10:22:53.811Z,150
2018-12-29T10:23:55.183Z,155
2018-12-29T10:24:56.553Z,155
2018-12-29T10:25:57.924Z,155
2018-12-29T10:26:59.296Z,170
2018-12-29T10:28:00.666Z,175
2018-12-29T10:29:02.035Z,170
2018-12-29T10:30:03.407Z,170
2018-12-29T10:31:04.781Z,165
2018-12-29T10:32:06.154Z,170
2018-12-29T10:33:07.524Z,175
2018-12-29T10:34:08.886Z,180
2018-12-29T10:35:10.261Z,185
2018-12-29T10:36:11.632Z,210
2018-12-29T10:37:13.007Z,215
2018-12-29T10:38:14.395Z,220
2018-12-29T10:39:15.771Z,220
2018-12-29T10:40:17.160Z,225
2018-12-29T10:41:18.574Z,235
2018-12-29T10:42:19.945Z,245
2018-12-29T10:43:21.324Z,240
2018-12-29T10:44:22.696Z,240
2018-12-29T10:45:24.072Z,245
2018-12-29T10:46:25.444Z,245
2018-12-29T10:47:26.811Z,240
2018-12-29T10:48:28.180Z,240
2018-12-29T10:49:29.550Z,240
2018-12-29T10:50:30.920Z,240
2018-12-29T10:51:32.315Z,230
2018-12-29T10:52:33.684Z,230
2018-12-29T10:53:35.063Z,225
2018-12-29T10:54:36.430Z,225
2018-12-29T10:55:37.818Z,220
2018-12-29T10:56:39.210Z,210
2018-12-29T10:57:40.568Z,200
2018-12-29T10:58:41.954Z,200
2018-12-29T10:59:43.309Z,205
2018-12-29T11:00:44.711Z,210
2018-12-29T11:01:46.190Z,215
2018-12-29T11:02:47.562Z,215
2018-12-29T11:03:48.937Z,220
2018-12-29T11:04:50.305Z,225
2018-12-29T11:05:51.700Z,230
2018-12-29T11:06:53.094Z,225
2018-12-29T11:07:54.528Z,225
2018-12-29T11:08:55.908Z,230
2018-12-29T11:09:57.281Z,225
2018-12-29T11:10:58.694Z,205
2018-12-29T11:12:00.095Z,190
2018-12-29T11:13:01.471Z,185
2018-12-29T11:14:02.866Z,190
2018-12-29T11:15:04.252Z,210
2018-12-29T11:16:05.643Z,220
2018-12-29T11:17:07.038Z,235
2018-12-29T11:18:08.404Z,245
2018-12-29T11:19:09.812Z,255
2018-12-29T11:20:11.176Z,265
2018-12-29T11:21:12.551Z,265
2018-12-29T11:22:13.923Z,250
2018-12-29T11:23:15.291Z,240
2018-12-29T11:24:16.661Z,245
2018-12-29T11:25:18.030Z,230
2018-12-29T11:26:19.405Z,215
2018-12-29T11:27:20.775Z,205
2018-12-29T11:28:22.148Z,210
2018-12-29T11:29:23.530Z,200
2018-12-29T11:30:24.924Z,175
2018-12-29T11:31:26.345Z,180
2018-12-29T11:32:27.714Z,190
2018-12-29T11:33:29.101Z,185
2018-12-29T11:34:30.498Z,190
2018-12-29T11:35:31.873Z,185
2018-12-29T11:36:33.243Z,185
2018-12-29T11:37:34.668Z,190
2018-12-29T11:38:36.040Z,205
2018-12-29T11:39:37.451Z,200
2018-12-29T11:40:38.856Z,195
2018-12-29T11:41:40.498Z,190
2018-12-29T11:42:41.906Z,185
2018-12-29T11:43:43.309Z,165
2018-12-29T11:44:44.757Z,165
2018-12-29T11:45:46.152Z,175
2018-12-29T11:46:47.520Z,165
2018-12-29T11:47:50.000Z,155
2018-12-29T11:48:50.259Z,175
2018-12-29T11:49:51.592Z,200
2018-12-29T11:50:52.982Z,220
2018-12-29T11:51:54.348Z,200
2018-12-29T11:52:55.711Z,200
2018-12-29T11:53:57.101Z,195
2018-12-29T11:54:58.549Z,190
2018-12-29T11:55:59.919Z,170
2018-12-29T11:57:01.308Z,165
2018-12-29T11:58:02.693Z,180
2018-12-29T11:59:04.064Z,170
2018-12-29T12:00:05.441Z,150
2018-12-29T12:01:06.823Z,165
2018-12-29T12:02:08.158Z,190
2018-12-29T12:03:09.531Z,180
2018-12-29T12:04:10.906Z,155
2018-12-29T12:05:12.280Z,145
2018-12-29T12:06:13.649Z,140
2018-12-29T12:07:15.068Z,130
2018-12-29T12:08:16.433Z,160
2018-12-29T12:09:17.816Z,165
2018-12-29T12:10:19.224Z,175
2018-12-29T12:11:20.630Z,155
2018-12-29T12:12:22.011Z,215
2018-12-29T12:13:23.384Z,215
2018-12-29T12:14:24.776Z,245
2018-12-29T12:15:26.166Z,210
2018-12-29T12:16:27.582Z,225
2018-12-29T12:17:28.962Z,205
2018-12-29T12:18:30.363Z,215
2018-12-29T12:19:31.740Z,185
2018-12-29T12:20:33.109Z,165
2018-12-29T12:21:34.483Z,155
2018-12-29T12:22:35.844Z,135
2018-12-29T12:23:37.254Z,125
2018-12-29T12:24:38.588Z,135
2018-12-29T12:25:39.992Z,155
2018-12-29T12:26:41.368Z,175
2018-12-29T12:27:42.760Z,165
2018-12-29T12:28:44.098Z,145
2018-12-29T12:29:45.486Z,155
2018-12-29T12:30:46.854Z,140
2018-12-29T12:31:48.223Z,140
2018-12-29T12:32:49.596Z,135
2018-12-29T12:33:50.977Z,115
2018-12-29T12:34:52.358Z,115
2018-12-29T12:35:54.026Z,115
2018-12-29T12:36:55.367Z,120
2018-12-29T12:37:56.733Z,140
2018-12-29T12:38:58.104Z,135
2018-12-29T12:39:59.708Z,125
2018-12-29T12:41:01.510Z,135
2018-12-29T12:42:03.834Z,125
2018-12-29T12:43:06.030Z,110
2018-12-29T12:44:08.383Z,100
2018-12-29T12:45:10.413Z,95
2018-12-29T12:46:12.941Z,95
2018-12-29T12:47:15.172Z,90
2018-12-29T12:48:17.444Z,90
2018-12-29T12:49:19.387Z,90
2018-12-29T12:50:22.282Z,95
2018-12-29T12:51:24.577Z,95
2018-12-29T12:52:26.942Z,85
2018-12-29T12:53:29.593Z,85
2018-12-29T12:54:31.484Z,90
2018-12-29T12:55:33.762Z,90
2018-12-29T12:56:36.078Z,100
2018-12-29T12:57:38.755Z,125
2018-12-29T12:58:41.011Z,150
2018-12-29T12:59:43.732Z,155
2018-12-29T13:00:46.387Z,165
2018-12-29T13:01:48.491Z,165
2018-12-29T13:02:51.296Z,170
2018-12-29T13:03:53.779Z,190
2018-12-29T13:04:55.806Z,185
2018-12-29T13:05:58.843Z,160
2018-12-29T13:07:01.781Z,135
2018-12-29T13:08:03.878Z,140
2018-12-29T13:09:06.374Z,140
2018-12-29T13:10:09.042Z,135
2018-12-29T13:11:11.159Z,130
2018-12-29T13:12:13.762Z,130
2018-12-29T13:13:15.696Z,120
2018-12-29T13:14:17.947Z,120
2018-12-29T13:15:21.741Z,120
2018-12-29T13:16:22.496Z,105
2018-12-29T13:17:24.948Z,100
2018-12-29T13:18:27.143Z,90
2018-12-29T13:19:29.343Z,85
2018-12-29T13:20:31.511Z,90
2018-12-29T13:21:33.845Z,100
2018-12-29T13:22:35.773Z,95
2018-12-29T13:23:37.923Z,90
2018-12-29T13:24:39.989Z,105
2018-12-29T13:25:42.334Z,115
2018-12-29T13:26:44.716Z,130
2018-12-29T13:27:47.338Z,125
2018-12-29T13:28:49.416Z,130
2018-12-29T13:29:50.819Z,130
2018-12-29T13:30:52.269Z,130
2018-12-29T13:31:53.645Z,130
2018-12-29T13:32:55.171Z,115
2018-12-29T13:33:56.552Z,115
2018-12-29T13:34:57.963Z,110
2018-12-29T13:35:59.613Z,105
2018-12-29T13:37:00.999Z,95
2018-12-29T13:38:02.746Z,90
2018-12-29T13:39:04.185Z,90
2018-12-29T13:40:06.044Z,90
2018-12-29T13:41:07.451Z,90
2018-12-29T13:42:08.916Z,95
2018-12-29T13:43:10.421Z,90
2018-12-29T13:44:11.898Z,85
2018-12-29T13:45:13.446Z,90
2018-12-29T13:46:14.908Z,85
2018-12-29T13:47:17.072Z,80
2018-12-29T13:48:20.659Z,80
2018-12-29T13:49:21.139Z,75
2018-12-29T13:50:23.205Z,80
2018-12-29T13:51:25.235Z,75
2018-12-29T13:52:27.511Z,75
2018-12-29T13:53:29.358Z,70
2018-12-29T13:54:30.795Z,65
2018-12-29T13:55:32.202Z,65
2018-12-29T13:56:33.626Z,60
2018-12-29T13:57:35.262Z,65
2018-12-29T13:58:36.649Z,65
2018-12-29T13:59:38.412Z,65
2018-12-29T14:00:39.838Z,60
2018-12-29T14:01:41.223Z,55
2018-12-29T14:02:42.693Z,45
2018-12-29T14:03:44.135Z,45
2018-12-29T14:04:46.193Z,45
2018-12-29T14:05:47.659Z,45
2018-12-29T14:06:49.934Z,45
2018-12-29T14:07:51.971Z,40
2018-12-29T14:08:54.606Z,45
2018-12-29T14:09:58.212Z,40
2018-12-29T14:11:00.079Z,45
2018-12-29T14:12:02.059Z,50
2018-12-29T14:13:03.887Z,45
2018-12-29T14:14:05.327Z,45
2018-12-29T14:15:07.784Z,45
2018-12-29T14:16:09.447Z,50
2018-12-29T14:17:10.899Z,55
2018-12-29T14:18:12.408Z,65
2018-12-29T14:19:13.860Z,75
2018-12-29T14:20:15.291Z,80
2018-12-29T14:21:16.717Z,85
2018-12-29T14:22:18.190Z,85
2018-12-29T14:23:19.942Z,80
2018-12-29T14:24:21.366Z,65
2018-12-29T14:25:22.736Z,70
2018-12-29T14:26:24.255Z,65
2018-12-29T14:27:25.687Z,70
2018-12-29T14:28:27.224Z,75
2018-12-29T14:29:28.970Z,70
2018-12-29T14:30:30.397Z,65
2018-12-29T14:31:31.992Z,65
2018-12-29T14:32:33.453Z,65
2018-12-29T14:33:34.884Z,75
2018-12-29T14:34:36.321Z,80
2018-12-29T14:35:37.758Z,65
2018-12-29T14:36:39.181Z,70
2018-12-29T14:37:40.542Z,70
2018-12-29T14:38:41.942Z,60
2018-12-29T14:39:43.369Z,45
2018-12-29T14:40:45.176Z,40
2018-12-29T14:41:46.602Z,40
2018-12-29T14:42:48.478Z,35
2018-12-29T14:43:50.330Z,25
2018-12-29T14:44:51.751Z,25